Time,TemperatureF,DewpointF,PressureIn,WindDirection,WindDirectionDegrees,WindSpeedMPH,WindSpeedGustMPH,Humidity,HourlyPrecipIn,Conditions,Clouds,dailyrainin,SoftwareType,DateUTC
2013-05-24 00:01:00,42.3,41.0,30.00,NNE,17,3.0,10.0,95,0.00,,,0.04,meteohub,2013-05-24 04:01:00,
2013-05-24 00:02:00,42.3,41.0,30.00,NNW,348,5.0,10.0,95,0.00,,,0.04,meteohub,2013-05-24 04:02:00,
2013-05-24 00:04:00,42.3,41.0,30.00,ENE,62,1.0,10.0,95,0.00,,,0.04,meteohub,2013-05-24 04:04:00,
2013-05-24 00:09:00,42.1,40.8,30.01,ESE,121,10.0,10.0,95,0.00,,,0.04,meteohub,2013-05-24 04:09:00,
2013-05-24 00:14:00,42.1,40.8,30.01,ESE,111,2.0,14.0,95,0.00,,,0.04,meteohub,2013-05-24 04:14:00,
2013-05-24 00:19:00,42.1,40.8,30.01,North,355,5.0,14.0,95,0.00,,,0.04,meteohub,2013-05-24 04:19:00,
2013-05-24 00:24:00,41.9,40.6,30.01,South,173,4.0,14.0,95,0.00,,,0.04,meteohub,2013-05-24 04:24:00,
2013-05-24 00:29:00,41.9,40.6,30.01,NE,49,1.0,13.0,95,0.00,,,0.04,meteohub,2013-05-24 04:29:00,
2013-05-24 00:34:00,41.7,40.1,30.02,SE,132,3.0,13.0,94,0.00,,,0.04,meteohub,2013-05-24 04:34:00,
2013-05-24 00:39:00,41.5,39.9,30.02,North,350,6.0,13.0,94,0.00,,,0.04,meteohub,2013-05-24 04:39:00,
2013-05-24 00:45:00,41.5,39.9,30.02,North,5,9.0,14.0,94,0.00,,,0.04,meteohub,2013-05-24 04:45:00,
2013-05-24 00:50:00,41.5,39.9,30.02,East,87,5.0,14.0,94,0.00,,,0.04,meteohub,2013-05-24 04:50:00,
2013-05-24 00:55:00,41.5,39.9,30.02,ENE,58,2.0,12.0,94,0.00,,,0.04,meteohub,2013-05-24 04:55:00,
2013-05-24 01:00:00,41.5,39.9,30.02,East,94,6.0,12.0,94,0.00,,,0.04,meteohub,2013-05-24 05:00:00,
2013-05-24 01:05:00,41.4,39.7,30.02,East,95,2.0,12.0,94,0.00,,,0.04,meteohub,2013-05-24 05:05:00,
2013-05-24 01:10:00,41.4,39.7,30.03,ENE,67,7.0,12.0,94,0.00,,,0.04,meteohub,2013-05-24 05:10:00,
2013-05-24 01:15:00,41.4,39.7,30.03,North,0,4.0,12.0,94,0.00,,,0.04,meteohub,2013-05-24 05:15:00,
2013-05-24 01:20:00,41.4,39.7,30.03,East,84,2.0,11.0,94,0.00,,,0.04,meteohub,2013-05-24 05:20:00,
2013-05-24 01:25:00,41.4,40.1,30.03,NNW,343,7.0,10.0,95,0.00,,,0.04,meteohub,2013-05-24 05:25:00,
2013-05-24 01:30:00,41.2,39.6,30.03,NNE,14,2.0,9.0,94,0.00,,,0.04,meteohub,2013-05-24 05:30:00,
2013-05-24 01:35:00,41.2,39.6,30.03,North,5,4.0,11.0,94,0.00,,,0.04,meteohub,2013-05-24 05:35:00,
2013-05-24 01:40:00,41.2,39.6,30.04,NNW,341,6.0,11.0,94,0.00,,,0.04,meteohub,2013-05-24 05:40:00,
2013-05-24 01:45:00,41.2,39.6,30.04,NNW,331,6.0,11.0,94,0.00,,,0.04,meteohub,2013-05-24 05:45:00,
2013-05-24 01:50:00,41.0,39.4,30.04,ENE,64,3.0,11.0,94,0.00,,,0.04,meteohub,2013-05-24 05:50:00,
2013-05-24 01:55:00,41.0,39.4,30.04,NNW,327,3.0,11.0,94,0.00,,,0.04,meteohub,2013-05-24 05:55:00,
2013-05-24 02:00:00,41.0,39.4,30.04,NE,46,9.0,11.0,94,0.00,,,0.04,meteohub,2013-05-24 06:00:00,
2013-05-24 02:05:00,41.0,39.4,30.04,NE,43,0.0,16.0,94,0.00,,,0.04,meteohub,2013-05-24 06:05:00,
2013-05-24 02:11:00,40.8,39.2,30.04,ENE,74,4.0,16.0,94,0.00,,,0.04,meteohub,2013-05-24 06:11:00,
2013-05-24 02:16:00,40.8,39.2,30.04,East,97,5.0,16.0,94,0.00,,,0.04,meteohub,2013-05-24 06:16:00,
2013-05-24 02:21:00,40.8,39.2,30.04,NNE,13,5.0,12.0,94,0.00,,,0.04,meteohub,2013-05-24 06:21:00,
2013-05-24 02:26:00,40.8,39.2,30.04,NNE,19,6.0,12.0,94,0.00,,,0.04,meteohub,2013-05-24 06:26:00,
2013-05-24 02:31:00,40.8,39.2,30.04,NNE,13,2.0,12.0,94,0.00,,,0.04,meteohub,2013-05-24 06:31:00,
2013-05-24 02:36:00,40.8,39.2,30.04,WSW,252,2.0,12.0,94,0.00,,,0.04,meteohub,2013-05-24 06:36:00,
2013-05-24 02:41:00,40.6,39.0,30.04,North,350,3.0,12.0,94,0.00,,,0.04,meteohub,2013-05-24 06:41:00,
2013-05-24 02:46:00,40.6,39.0,30.05,East,84,7.0,10.0,94,0.00,,,0.04,meteohub,2013-05-24 06:46:00,
2013-05-24 02:51:00,40.6,38.8,30.05,East,97,2.0,10.0,93,0.00,,,0.04,meteohub,2013-05-24 06:51:00,
2013-05-24 02:56:00,40.5,38.7,30.05,NNW,331,7.0,10.0,93,0.00,,,0.04,meteohub,2013-05-24 06:56:00,
2013-05-24 03:01:00,40.5,38.7,30.05,NNE,18,8.0,10.0,93,0.00,,,0.04,meteohub,2013-05-24 07:01:00,
2013-05-24 03:06:00,40.3,38.5,30.05,NE,36,4.0,11.0,93,0.00,,,0.04,meteohub,2013-05-24 07:06:00,
2013-05-24 03:11:00,40.3,38.5,30.06,ENE,57,3.0,13.0,93,0.00,,,0.04,meteohub,2013-05-24 07:11:00,
2013-05-24 03:16:00,40.1,38.3,30.06,North,355,7.0,13.0,93,0.00,,,0.04,meteohub,2013-05-24 07:16:00,
2013-05-24 03:21:00,39.9,38.1,30.06,East,96,5.0,13.0,93,0.00,,,0.04,meteohub,2013-05-24 07:21:00,
2013-05-24 03:26:00,39.9,38.1,30.06,NW,320,3.0,13.0,93,0.00,,,0.04,meteohub,2013-05-24 07:26:00,
2013-05-24 03:32:00,39.9,38.1,30.06,NE,38,1.0,10.0,93,0.00,,,0.04,meteohub,2013-05-24 07:32:00,
2013-05-24 03:37:00,39.9,38.1,30.06,ESE,116,3.0,9.0,93,0.00,,,0.04,meteohub,2013-05-24 07:37:00,
2013-05-24 03:42:00,39.9,38.1,30.07,East,91,2.0,11.0,93,0.00,,,0.04,meteohub,2013-05-24 07:42:00,
2013-05-24 03:47:00,39.9,38.1,30.07,East,87,2.0,11.0,93,0.00,,,0.04,meteohub,2013-05-24 07:47:00,
2013-05-24 03:52:00,39.9,38.1,30.07,ENE,68,2.0,11.0,93,0.00,,,0.04,meteohub,2013-05-24 07:52:00,
2013-05-24 03:57:00,39.9,38.1,30.08,East,90,3.0,9.0,93,0.00,,,0.04,meteohub,2013-05-24 07:57:00,
2013-05-24 04:02:00,39.9,38.1,30.08,ENE,61,4.0,11.0,93,0.00,,,0.04,meteohub,2013-05-24 08:02:00,
2013-05-24 04:07:00,39.9,38.1,30.08,North,10,3.0,11.0,93,0.00,,,0.04,meteohub,2013-05-24 08:07:00,
2013-05-24 04:12:00,39.9,37.8,30.08,North,0,4.0,11.0,92,0.00,,,0.04,meteohub,2013-05-24 08:12:00,
2013-05-24 04:17:00,39.9,37.8,30.09,SSW,197,2.0,11.0,92,0.00,,,0.04,meteohub,2013-05-24 08:17:00,
2013-05-24 04:22:00,39.9,37.8,30.09,NE,52,1.0,11.0,92,0.00,,,0.04,meteohub,2013-05-24 08:22:00,
2013-05-24 04:27:00,39.9,37.8,30.09,East,80,8.0,9.0,92,0.00,,,0.04,meteohub,2013-05-24 08:27:00,
2013-05-24 04:32:00,39.9,37.8,30.09,ENE,69,1.0,9.0,92,0.00,,,0.04,meteohub,2013-05-24 08:32:00,
2013-05-24 04:37:00,39.9,37.8,30.10,NNE,29,1.0,10.0,92,0.00,,,0.04,meteohub,2013-05-24 08:37:00,
2013-05-24 04:42:00,39.9,37.8,30.10,ENE,59,2.0,10.0,92,0.00,,,0.04,meteohub,2013-05-24 08:42:00,
2013-05-24 04:47:00,39.9,37.8,30.10,NE,39,6.0,10.0,92,0.00,,,0.04,meteohub,2013-05-24 08:47:00,
2013-05-24 04:52:00,39.9,37.8,30.10,ESE,105,2.0,11.0,92,0.00,,,0.04,meteohub,2013-05-24 08:52:00,
2013-05-24 04:57:00,39.9,37.8,30.10,ESE,120,1.0,11.0,92,0.00,,,0.04,meteohub,2013-05-24 08:57:00,
2013-05-24 05:02:00,39.9,37.6,30.10,North,5,3.0,11.0,91,0.00,,,0.04,meteohub,2013-05-24 09:02:00,
2013-05-24 05:07:00,39.9,37.6,30.11,North,5,2.0,10.0,91,0.00,,,0.04,meteohub,2013-05-24 09:07:00,
2013-05-24 05:12:00,39.9,37.6,30.11,East,86,1.0,10.0,91,0.00,,,0.04,meteohub,2013-05-24 09:12:00,
2013-05-24 05:17:00,39.7,37.0,30.11,ENE,76,1.0,10.0,90,0.00,,,0.04,meteohub,2013-05-24 09:17:00,
2013-05-24 05:22:00,39.7,37.0,30.11,North,355,3.0,10.0,90,0.00,,,0.04,meteohub,2013-05-24 09:22:00,
2013-05-24 05:27:00,39.7,37.0,30.11,NE,43,2.0,10.0,90,0.00,,,0.04,meteohub,2013-05-24 09:27:00,
2013-05-24 05:32:00,39.9,37.2,30.12,NNE,29,1.0,9.0,90,0.00,,,0.04,meteohub,2013-05-24 09:32:00,
2013-05-24 05:37:00,39.9,37.2,30.12,North,0,1.0,9.0,90,0.00,,,0.04,meteohub,2013-05-24 09:37:00,
2013-05-24 05:42:00,39.9,37.2,30.12,NE,35,3.0,9.0,90,0.00,,,0.04,meteohub,2013-05-24 09:42:00,
2013-05-24 05:47:00,39.9,37.2,30.12,ENE,71,1.0,8.0,90,0.00,,,0.04,meteohub,2013-05-24 09:47:00,
2013-05-24 05:52:00,39.9,37.2,30.12,NNE,15,4.0,8.0,90,0.00,,,0.04,meteohub,2013-05-24 09:52:00,
2013-05-24 05:57:00,39.9,37.2,30.12,NNW,330,6.0,8.0,90,0.00,,,0.04,meteohub,2013-05-24 09:57:00,
2013-05-24 06:02:00,40.1,37.4,30.13,NW,323,3.0,9.0,90,0.00,,,0.04,meteohub,2013-05-24 10:02:00,
2013-05-24 06:07:00,40.1,37.0,30.13,NE,35,2.0,9.0,89,0.00,,,0.04,meteohub,2013-05-24 10:07:00,
2013-05-24 06:12:00,40.1,37.0,30.13,ENE,63,3.0,9.0,89,0.00,,,0.04,meteohub,2013-05-24 10:12:00,
2013-05-24 06:17:00,40.1,37.0,30.14,North,5,5.0,8.0,89,0.00,,,0.04,meteohub,2013-05-24 10:17:00,
2013-05-24 06:22:00,40.1,37.0,30.14,NE,50,2.0,8.0,89,0.00,,,0.04,meteohub,2013-05-24 10:22:00,
2013-05-24 06:27:00,40.1,37.0,30.14,ENE,69,1.0,8.0,89,0.00,,,0.04,meteohub,2013-05-24 10:27:00,
2013-05-24 06:32:00,40.1,37.0,30.14,North,5,6.0,8.0,89,0.00,,,0.04,meteohub,2013-05-24 10:32:00,
2013-05-24 06:37:00,40.1,37.0,30.15,NNW,333,3.0,9.0,89,0.00,,,0.04,meteohub,2013-05-24 10:37:00,
2013-05-24 06:42:00,39.9,36.9,30.15,East,81,5.0,10.0,89,0.00,,,0.04,meteohub,2013-05-24 10:42:00,
2013-05-24 06:47:00,39.9,36.9,30.15,North,355,5.0,10.0,89,0.00,,,0.04,meteohub,2013-05-24 10:47:00,
2013-05-24 06:52:00,39.9,36.9,30.16,NW,325,3.0,10.0,89,0.01,,,0.05,meteohub,2013-05-24 10:52:00,
2013-05-24 06:57:00,39.9,36.9,30.16,NNW,329,2.0,10.0,89,0.01,,,0.05,meteohub,2013-05-24 10:57:00,
2013-05-24 07:02:00,39.9,36.9,30.16,East,94,7.0,10.0,89,0.01,,,0.05,meteohub,2013-05-24 11:02:00,
2013-05-24 07:07:00,39.7,36.7,30.17,North,351,3.0,8.0,89,0.01,,,0.05,meteohub,2013-05-24 11:07:00,
2013-05-24 07:12:00,39.7,36.7,30.17,NW,314,4.0,12.0,89,0.01,,,0.05,meteohub,2013-05-24 11:12:00,
2013-05-24 07:17:00,39.6,36.5,30.17,NNW,332,3.0,12.0,89,0.01,,,0.05,meteohub,2013-05-24 11:17:00,
2013-05-24 07:22:00,39.6,36.5,30.17,NNE,18,2.0,12.0,89,0.01,,,0.05,meteohub,2013-05-24 11:22:00,
2013-05-24 07:27:00,39.6,36.3,30.17,North,349,7.0,11.0,88,0.01,,,0.05,meteohub,2013-05-24 11:27:00,
2013-05-24 07:32:00,39.4,35.8,30.17,North,0,5.0,11.0,87,0.01,,,0.05,meteohub,2013-05-24 11:32:00,
2013-05-24 07:37:00,39.4,35.8,30.18,ENE,66,8.0,12.0,87,0.01,,,0.05,meteohub,2013-05-24 11:37:00,
2013-05-24 07:42:00,39.2,35.1,30.18,ENE,71,4.0,13.0,85,0.01,,,0.05,meteohub,2013-05-24 11:42:00,
2013-05-24 07:47:00,39.0,35.2,30.18,NNW,332,5.0,13.0,86,0.01,,,0.05,meteohub,2013-05-24 11:47:00,
2013-05-24 07:52:00,39.0,34.9,30.18,NNE,17,4.0,13.0,85,0.00,,,0.05,meteohub,2013-05-24 11:52:00,
2013-05-24 07:57:00,39.0,34.9,30.19,SE,124,8.0,13.0,85,0.00,,,0.05,meteohub,2013-05-24 11:57:00,
2013-05-24 08:02:00,39.0,34.9,30.19,NNE,19,2.0,13.0,85,0.00,,,0.05,meteohub,2013-05-24 12:02:00,
2013-05-24 08:07:00,39.0,34.9,30.19,NE,42,3.0,13.0,85,0.00,,,0.05,meteohub,2013-05-24 12:07:00,
2013-05-24 08:12:00,39.0,34.9,30.19,NE,52,1.0,11.0,85,0.00,,,0.05,meteohub,2013-05-24 12:12:00,
2013-05-24 08:17:00,39.2,35.1,30.20,East,95,3.0,11.0,85,0.00,,,0.05,meteohub,2013-05-24 12:17:00,
2013-05-24 08:22:00,39.4,35.2,30.20,ENE,71,2.0,8.0,85,0.00,,,0.05,meteohub,2013-05-24 12:22:00,
2013-05-24 08:27:00,39.4,35.2,30.20,NNW,345,5.0,10.0,85,0.00,,,0.05,meteohub,2013-05-24 12:27:00,
2013-05-24 08:32:00,39.4,34.9,30.21,NNE,20,5.0,10.0,84,0.00,,,0.05,meteohub,2013-05-24 12:32:00,
2013-05-24 08:37:00,39.2,34.7,30.21,North,355,9.0,16.0,84,0.00,,,0.05,meteohub,2013-05-24 12:37:00,
2013-05-24 08:42:00,39.0,34.5,30.21,East,80,5.0,16.0,84,0.00,,,0.05,meteohub,2013-05-24 12:42:00,
2013-05-24 08:47:00,39.0,34.5,30.21,North,11,3.0,16.0,84,0.00,,,0.05,meteohub,2013-05-24 12:47:00,
2013-05-24 08:52:00,39.0,34.3,30.22,NNW,347,6.0,13.0,83,0.00,,,0.05,meteohub,2013-05-24 12:52:00,
2013-05-24 08:57:00,39.0,34.3,30.22,NNE,28,4.0,10.0,83,0.00,,,0.05,meteohub,2013-05-24 12:57:00,
2013-05-24 09:02:00,39.0,34.3,30.22,NNW,327,5.0,10.0,83,0.00,,,0.05,meteohub,2013-05-24 13:02:00,
2013-05-24 09:07:00,39.0,34.3,30.22,ENE,63,5.0,13.0,83,0.00,,,0.05,meteohub,2013-05-24 13:07:00,
2013-05-24 09:12:00,39.0,34.3,30.22,NE,51,4.0,13.0,83,0.00,,,0.05,meteohub,2013-05-24 13:12:00,
2013-05-24 09:17:00,39.0,34.0,30.22,NE,36,3.0,13.0,82,0.00,,,0.05,meteohub,2013-05-24 13:17:00,
2013-05-24 09:22:00,39.0,34.0,30.22,North,10,8.0,12.0,82,0.00,,,0.05,meteohub,2013-05-24 13:22:00,
2013-05-24 09:27:00,39.2,34.5,30.23,North,355,2.0,12.0,83,0.00,,,0.05,meteohub,2013-05-24 13:27:00,
2013-05-24 09:32:00,39.4,34.3,30.23,NE,42,2.0,12.0,82,0.00,,,0.05,meteohub,2013-05-24 13:32:00,
2013-05-24 09:37:00,39.4,34.3,30.23,NNE,25,2.0,10.0,82,0.00,,,0.05,meteohub,2013-05-24 13:37:00,
2013-05-24 09:42:00,39.4,34.7,30.24,NNE,15,4.0,10.0,83,0.00,,,0.05,meteohub,2013-05-24 13:42:00,
2013-05-24 09:47:00,39.4,34.3,30.24,NE,44,2.0,10.0,82,0.00,,,0.05,meteohub,2013-05-24 13:47:00,
2013-05-24 09:52:00,39.4,34.3,30.24,East,80,5.0,9.0,82,0.00,,,0.05,meteohub,2013-05-24 13:52:00,
2013-05-24 09:57:00,39.6,34.9,30.24,NNE,24,5.0,9.0,83,0.00,,,0.05,meteohub,2013-05-24 13:57:00,
2013-05-24 10:02:00,39.6,34.5,30.24,NNE,13,4.0,10.0,82,0.00,,,0.05,meteohub,2013-05-24 14:02:00,
2013-05-24 10:07:00,39.6,34.2,30.25,NNW,334,4.0,12.0,81,0.00,,,0.05,meteohub,2013-05-24 14:07:00,
2013-05-24 10:12:00,39.6,34.5,30.25,East,83,5.0,13.0,82,0.00,,,0.05,meteohub,2013-05-24 14:12:00,
2013-05-24 10:17:00,39.6,34.2,30.25,NW,316,3.0,13.0,81,0.00,,,0.05,meteohub,2013-05-24 14:17:00,
2013-05-24 10:22:00,39.7,34.3,30.25,East,88,2.0,11.0,81,0.00,,,0.05,meteohub,2013-05-24 14:22:00,
2013-05-24 10:27:00,39.6,33.6,30.26,NE,35,9.0,12.0,79,0.00,,,0.05,meteohub,2013-05-24 14:27:00,
2013-05-24 10:32:00,39.4,33.4,30.26,East,80,14.0,14.0,79,0.00,,,0.05,meteohub,2013-05-24 14:32:00,
2013-05-24 10:37:00,39.2,33.3,30.26,ENE,71,5.0,14.0,79,0.00,,,0.05,meteohub,2013-05-24 14:37:00,
2013-05-24 10:42:00,39.4,33.4,30.26,North,350,3.0,14.0,79,0.00,,,0.05,meteohub,2013-05-24 14:42:00,
2013-05-24 10:47:00,39.4,33.4,30.27,East,84,6.0,14.0,79,0.00,,,0.05,meteohub,2013-05-24 14:47:00,
2013-05-24 10:52:00,39.4,33.1,30.27,NNW,340,4.0,14.0,78,0.00,,,0.05,meteohub,2013-05-24 14:52:00,
2013-05-24 10:57:00,39.0,32.7,30.27,NE,47,8.0,14.0,78,0.00,,,0.05,meteohub,2013-05-24 14:57:00,
2013-05-24 11:02:00,39.0,33.4,30.27,North,0,4.0,18.0,80,0.00,,,0.05,meteohub,2013-05-24 15:02:00,
2013-05-24 11:07:00,39.0,33.4,30.27,North,10,4.0,18.0,80,0.00,,,0.05,meteohub,2013-05-24 15:07:00,
2013-05-24 11:12:00,39.4,33.8,30.27,East,84,3.0,18.0,80,0.00,,,0.05,meteohub,2013-05-24 15:12:00,
2013-05-24 11:17:00,39.4,33.4,30.27,NNE,24,5.0,11.0,79,0.00,,,0.05,meteohub,2013-05-24 15:17:00,
2013-05-24 11:22:00,39.4,33.8,30.27,ENE,58,3.0,13.0,80,0.00,,,0.05,meteohub,2013-05-24 15:22:00,
2013-05-24 11:27:00,39.4,33.8,30.28,North,355,3.0,13.0,80,0.00,,,0.05,meteohub,2013-05-24 15:27:00,
2013-05-24 11:32:00,39.4,33.8,30.28,NNE,17,2.0,13.0,80,0.00,,,0.05,meteohub,2013-05-24 15:32:00,
2013-05-24 11:37:00,39.6,34.5,30.28,NNW,338,2.0,9.0,82,0.00,,,0.05,meteohub,2013-05-24 15:37:00,
2013-05-24 11:42:00,39.6,34.2,30.28,ENE,58,7.0,9.0,81,0.00,,,0.05,meteohub,2013-05-24 15:42:00,
2013-05-24 11:47:00,39.6,34.2,30.28,NNW,347,3.0,10.0,81,0.00,,,0.05,meteohub,2013-05-24 15:47:00,
2013-05-24 11:52:00,39.6,34.0,30.28,NE,55,2.0,12.0,80,0.00,,,0.05,meteohub,2013-05-24 15:52:00,
2013-05-24 11:57:00,39.6,34.0,30.29,East,91,3.0,12.0,80,0.00,,,0.05,meteohub,2013-05-24 15:57:00,
2013-05-24 12:02:00,39.6,34.0,30.29,NNW,336,0.0,12.0,80,0.00,,,0.05,meteohub,2013-05-24 16:02:00,
2013-05-24 12:07:00,39.6,34.0,30.29,North,0,4.0,11.0,80,0.00,,,0.05,meteohub,2013-05-24 16:07:00,
2013-05-24 12:12:00,39.6,34.2,30.29,NE,54,5.0,16.0,81,0.00,,,0.05,meteohub,2013-05-24 16:12:00,
2013-05-24 12:17:00,39.4,34.0,30.30,NE,44,10.0,16.0,81,0.00,,,0.05,meteohub,2013-05-24 16:17:00,
2013-05-24 12:22:00,39.4,34.0,30.30,ENE,64,8.0,12.0,81,0.00,,,0.05,meteohub,2013-05-24 16:22:00,
2013-05-24 12:27:00,39.4,34.0,30.30,North,351,2.0,12.0,81,0.00,,,0.05,meteohub,2013-05-24 16:27:00,
2013-05-24 12:32:00,39.6,34.5,30.30,North,11,7.0,12.0,82,0.00,,,0.05,meteohub,2013-05-24 16:32:00,
2013-05-24 12:37:00,39.7,34.2,30.30,North,11,4.0,15.0,80,0.00,,,0.05,meteohub,2013-05-24 16:37:00,
2013-05-24 12:42:00,39.9,33.6,30.30,NNW,332,4.0,15.0,78,0.00,,,0.05,meteohub,2013-05-24 16:42:00,
2013-05-24 12:47:00,40.5,34.2,30.30,ENE,68,5.0,15.0,78,0.00,,,0.05,meteohub,2013-05-24 16:47:00,
2013-05-24 12:52:00,40.8,34.5,30.30,NNW,344,3.0,13.0,78,0.00,,,0.05,meteohub,2013-05-24 16:52:00,
2013-05-24 12:57:00,41.2,34.2,30.30,NE,47,2.0,14.0,76,0.00,,,0.05,meteohub,2013-05-24 16:57:00,
2013-05-24 13:02:00,41.2,35.2,30.30,North,0,6.0,14.0,79,0.00,,,0.05,meteohub,2013-05-24 17:02:00,
2013-05-24 13:07:00,40.6,34.0,30.30,NW,315,7.0,12.0,77,0.00,,,0.05,meteohub,2013-05-24 17:07:00,
2013-05-24 13:12:00,40.5,34.2,30.30,East,86,7.0,17.0,78,0.00,,,0.05,meteohub,2013-05-24 17:12:00,
2013-05-24 13:17:00,40.5,34.7,30.30,NNW,347,6.0,17.0,80,0.00,,,0.05,meteohub,2013-05-24 17:17:00,
2013-05-24 13:22:00,40.6,34.7,30.30,NNW,338,3.0,17.0,79,0.00,,,0.05,meteohub,2013-05-24 17:22:00,
2013-05-24 13:27:00,40.5,34.2,30.30,NNE,32,5.0,12.0,78,0.00,,,0.05,meteohub,2013-05-24 17:27:00,
2013-05-24 13:32:00,40.5,34.2,30.31,NNW,342,5.0,14.0,78,0.00,,,0.05,meteohub,2013-05-24 17:32:00,
2013-05-24 13:37:00,40.3,34.0,30.31,NE,50,10.0,14.0,78,0.00,,,0.05,meteohub,2013-05-24 17:37:00,
2013-05-24 13:42:00,40.5,34.2,30.31,NNE,23,3.0,14.0,78,0.00,,,0.05,meteohub,2013-05-24 17:42:00,
2013-05-24 13:47:00,40.8,34.2,30.31,North,5,3.0,14.0,77,0.00,,,0.05,meteohub,2013-05-24 17:47:00,
2013-05-24 13:52:00,41.4,34.3,30.31,ENE,65,5.0,15.0,76,0.00,,,0.05,meteohub,2013-05-24 17:52:00,
2013-05-24 13:57:00,41.7,34.3,30.31,NNW,345,5.0,15.0,75,0.00,,,0.05,meteohub,2013-05-24 17:57:00,
2013-05-24 14:02:00,42.1,35.1,30.31,North,5,5.0,12.0,76,0.00,,,0.05,meteohub,2013-05-24 18:02:00,
2013-05-24 14:07:00,42.4,35.4,30.32,NW,322,3.0,13.0,76,0.00,,,0.05,meteohub,2013-05-24 18:07:00,
2013-05-24 14:12:00,42.4,34.3,30.32,NNW,339,4.0,13.0,73,0.00,,,0.05,meteohub,2013-05-24 18:12:00,
2013-05-24 14:17:00,42.1,34.7,30.32,NE,50,5.0,13.0,75,0.00,,,0.05,meteohub,2013-05-24 18:17:00,
2013-05-24 14:22:00,41.5,34.2,30.32,NNW,339,5.0,12.0,75,0.00,,,0.05,meteohub,2013-05-24 18:22:00,
2013-05-24 14:27:00,41.2,34.5,30.32,NNW,339,3.0,13.0,77,0.00,,,0.05,meteohub,2013-05-24 18:27:00,
2013-05-24 14:32:00,41.2,34.5,30.32,East,79,5.0,13.0,77,0.00,,,0.05,meteohub,2013-05-24 18:32:00,
2013-05-24 14:37:00,41.2,34.5,30.32,NNW,345,5.0,13.0,77,0.00,,,0.05,meteohub,2013-05-24 18:37:00,
2013-05-24 14:42:00,41.4,35.4,30.32,North,9,5.0,13.0,79,0.00,,,0.05,meteohub,2013-05-24 18:42:00,
2013-05-24 14:47:00,41.4,34.7,30.32,NE,55,3.0,13.0,77,0.00,,,0.05,meteohub,2013-05-24 18:47:00,
2013-05-24 14:52:00,41.2,34.5,30.32,NNW,346,8.0,13.0,77,0.00,,,0.05,meteohub,2013-05-24 18:52:00,
2013-05-24 14:57:00,41.4,34.3,30.32,NE,55,2.0,13.0,76,0.00,,,0.05,meteohub,2013-05-24 18:57:00,
2013-05-24 15:02:00,41.5,34.2,30.32,ENE,57,5.0,13.0,75,0.00,,,0.05,meteohub,2013-05-24 19:02:00,
2013-05-24 15:07:00,41.5,34.2,30.32,NNE,24,7.0,13.0,75,0.00,,,0.05,meteohub,2013-05-24 19:07:00,
2013-05-24 15:12:00,41.4,34.3,30.33,NNE,30,9.0,14.0,76,0.00,,,0.05,meteohub,2013-05-24 19:12:00,
2013-05-24 15:17:00,41.4,34.3,30.33,NE,53,3.0,14.0,76,0.00,,,0.05,meteohub,2013-05-24 19:17:00,
2013-05-24 15:22:00,41.4,34.7,30.32,NNE,19,11.0,14.0,77,0.00,,,0.05,meteohub,2013-05-24 19:22:00,
2013-05-24 15:27:00,41.4,34.7,30.33,NE,44,6.0,13.0,77,0.00,,,0.05,meteohub,2013-05-24 19:27:00,
2013-05-24 15:32:00,41.2,34.2,30.33,NNW,346,5.0,13.0,76,0.00,,,0.05,meteohub,2013-05-24 19:32:00,
2013-05-24 15:37:00,41.2,34.2,30.33,North,0,7.0,14.0,76,0.00,,,0.05,meteohub,2013-05-24 19:37:00,
2013-05-24 15:42:00,41.4,34.3,30.33,North,0,11.0,14.0,76,0.00,,,0.05,meteohub,2013-05-24 19:42:00,
2013-05-24 15:47:00,41.4,34.3,30.33,ENE,71,4.0,14.0,76,0.00,,,0.05,meteohub,2013-05-24 19:47:00,
2013-05-24 15:52:00,41.5,34.2,30.33,NE,38,3.0,12.0,75,0.00,,,0.05,meteohub,2013-05-24 19:52:00,
2013-05-24 15:57:00,41.5,34.5,30.33,NE,44,6.0,12.0,76,0.00,,,0.05,meteohub,2013-05-24 19:57:00,
2013-05-24 16:02:00,41.5,33.8,30.33,North,0,6.0,12.0,74,0.00,,,0.05,meteohub,2013-05-24 20:02:00,
2013-05-24 16:07:00,41.7,33.6,30.34,North,355,2.0,12.0,73,0.00,,,0.05,meteohub,2013-05-24 20:07:00,
2013-05-24 16:12:00,42.1,34.0,30.34,NE,49,5.0,10.0,73,0.00,,,0.05,meteohub,2013-05-24 20:12:00,
2013-05-24 16:17:00,42.1,34.0,30.33,North,5,3.0,10.0,73,0.00,,,0.05,meteohub,2013-05-24 20:17:00,
2013-05-24 16:22:00,42.1,33.4,30.33,NE,46,7.0,13.0,71,0.00,,,0.05,meteohub,2013-05-24 20:22:00,
2013-05-24 16:27:00,42.1,33.4,30.33,NNE,33,5.0,13.0,71,0.00,,,0.05,meteohub,2013-05-24 20:27:00,
2013-05-24 16:32:00,42.1,33.8,30.34,ENE,57,8.0,13.0,72,0.00,,,0.05,meteohub,2013-05-24 20:32:00,
2013-05-24 16:37:00,42.3,34.2,30.34,NNE,31,5.0,12.0,73,0.00,,,0.05,meteohub,2013-05-24 20:37:00,
2013-05-24 16:42:00,42.1,33.4,30.34,NW,321,5.0,11.0,71,0.00,,,0.05,meteohub,2013-05-24 20:42:00,
2013-05-24 16:47:00,42.1,33.8,30.34,NNE,32,6.0,14.0,72,0.00,,,0.05,meteohub,2013-05-24 20:47:00,
2013-05-24 16:52:00,42.1,34.0,30.34,NE,52,8.0,14.0,73,0.00,,,0.05,meteohub,2013-05-24 20:52:00,
2013-05-24 16:57:00,42.3,34.2,30.34,NW,320,2.0,11.0,73,0.00,,,0.05,meteohub,2013-05-24 20:57:00,
2013-05-24 17:02:00,41.9,33.6,30.34,NE,38,4.0,11.0,72,0.00,,,0.05,meteohub,2013-05-24 21:02:00,
2013-05-24 17:07:00,41.7,33.6,30.35,NNE,16,7.0,11.0,73,0.00,,,0.05,meteohub,2013-05-24 21:07:00,
2013-05-24 17:12:00,41.7,33.6,30.35,NNE,16,4.0,11.0,73,0.00,,,0.05,meteohub,2013-05-24 21:12:00,
2013-05-24 17:17:00,41.5,33.6,30.35,NNE,12,7.0,11.0,73,0.00,,,0.05,meteohub,2013-05-24 21:17:00,
2013-05-24 17:22:00,41.5,33.6,30.35,ESE,102,10.0,11.0,73,0.00,,,0.05,meteohub,2013-05-24 21:22:00,
2013-05-24 17:27:00,41.5,33.6,30.35,NE,51,1.0,13.0,73,0.00,,,0.05,meteohub,2013-05-24 21:27:00,
2013-05-24 17:32:00,41.5,33.6,30.35,NNE,17,3.0,13.0,73,0.00,,,0.05,meteohub,2013-05-24 21:32:00,
2013-05-24 17:37:00,41.5,33.6,30.35,ENE,59,4.0,13.0,73,0.00,,,0.05,meteohub,2013-05-24 21:37:00,
2013-05-24 17:42:00,41.7,33.6,30.35,East,81,5.0,12.0,73,0.00,,,0.05,meteohub,2013-05-24 21:42:00,
2013-05-24 17:47:00,41.7,33.4,30.35,North,351,3.0,14.0,72,0.00,,,0.05,meteohub,2013-05-24 21:47:00,
2013-05-24 17:52:00,41.7,33.6,30.35,North,0,4.0,14.0,73,0.00,,,0.05,meteohub,2013-05-24 21:52:00,
2013-05-24 17:57:00,41.9,34.2,30.35,ENE,67,1.0,10.0,74,0.00,,,0.05,meteohub,2013-05-24 21:57:00,
2013-05-24 18:02:00,42.1,34.3,30.35,ENE,60,2.0,10.0,74,0.00,,,0.05,meteohub,2013-05-24 22:02:00,
2013-05-24 18:07:00,41.7,33.6,30.35,NNE,15,5.0,10.0,73,0.00,,,0.05,meteohub,2013-05-24 22:07:00,
2013-05-24 18:12:00,41.5,33.8,30.35,North,355,2.0,11.0,74,0.00,,,0.05,meteohub,2013-05-24 22:12:00,
2013-05-24 18:17:00,41.5,33.8,30.35,ENE,68,7.0,11.0,74,0.00,,,0.05,meteohub,2013-05-24 22:17:00,
2013-05-24 18:22:00,41.5,34.2,30.35,North,11,3.0,12.0,75,0.00,,,0.05,meteohub,2013-05-24 22:22:00,
2013-05-24 18:27:00,41.5,33.8,30.35,North,5,6.0,12.0,74,0.00,,,0.05,meteohub,2013-05-24 22:27:00,
2013-05-24 18:32:00,41.4,33.6,30.35,North,350,5.0,12.0,74,0.00,,,0.05,meteohub,2013-05-24 22:32:00,
2013-05-24 18:37:00,41.5,33.8,30.35,North,10,5.0,11.0,74,0.00,,,0.05,meteohub,2013-05-24 22:37:00,
2013-05-24 18:42:00,41.5,33.8,30.35,North,351,4.0,11.0,74,0.00,,,0.05,meteohub,2013-05-24 22:42:00,
2013-05-24 18:47:00,41.5,33.8,30.35,NNW,337,7.0,11.0,74,0.00,,,0.05,meteohub,2013-05-24 22:47:00,
2013-05-24 18:52:00,41.5,33.6,30.35,North,11,3.0,9.0,73,0.00,,,0.05,meteohub,2013-05-24 22:52:00,
2013-05-24 18:57:00,41.4,33.1,30.35,NW,317,8.0,10.0,72,0.00,,,0.05,meteohub,2013-05-24 22:57:00,
2013-05-24 19:02:00,41.2,33.4,30.35,East,89,2.0,14.0,74,0.00,,,0.05,meteohub,2013-05-24 23:02:00,
2013-05-24 19:07:00,41.2,33.3,30.35,NNE,30,4.0,14.0,73,0.00,,,0.05,meteohub,2013-05-24 23:07:00,
2013-05-24 19:12:00,41.2,33.3,30.35,East,81,6.0,11.0,73,0.00,,,0.05,meteohub,2013-05-24 23:12:00,
2013-05-24 19:17:00,41.0,33.1,30.35,NNW,347,6.0,12.0,73,0.00,,,0.05,meteohub,2013-05-24 23:17:00,
2013-05-24 19:22:00,41.2,33.4,30.35,WNW,298,6.0,12.0,74,0.00,,,0.05,meteohub,2013-05-24 23:22:00,
2013-05-24 19:27:00,41.0,33.1,30.35,East,84,6.0,12.0,73,0.00,,,0.05,meteohub,2013-05-24 23:27:00,
2013-05-24 19:32:00,41.0,33.1,30.35,NE,38,2.0,13.0,73,0.00,,,0.05,meteohub,2013-05-24 23:32:00,
2013-05-24 19:37:00,41.2,32.9,30.35,ENE,59,5.0,13.0,72,0.00,,,0.05,meteohub,2013-05-24 23:37:00,
2013-05-24 19:42:00,41.2,32.9,30.35,North,11,8.0,15.0,72,0.00,,,0.05,meteohub,2013-05-24 23:42:00,
2013-05-24 19:47:00,40.8,32.5,30.35,NNE,32,3.0,15.0,72,0.00,,,0.05,meteohub,2013-05-24 23:47:00,
2013-05-24 19:52:00,40.8,32.5,30.35,ENE,69,3.0,15.0,72,0.00,,,0.05,meteohub,2013-05-24 23:52:00,
2013-05-24 19:57:00,40.8,32.5,30.34,ENE,63,7.0,10.0,72,0.00,,,0.05,meteohub,2013-05-24 23:57:00,
2013-05-24 20:02:00,40.8,32.5,30.34,NNW,336,2.0,9.0,72,0.00,,,0.05,meteohub,2013-05-25 00:02:00,
2013-05-24 20:07:00,40.5,32.5,30.34,NE,43,2.0,9.0,73,0.00,,,0.00,meteohub,2013-05-25 00:07:00,
2013-05-24 20:12:00,40.3,32.7,30.34,NNE,18,2.0,9.0,74,0.00,,,0.00,meteohub,2013-05-25 00:12:00,
2013-05-24 20:17:00,39.9,32.0,30.34,NE,37,4.0,9.0,73,0.00,,,0.00,meteohub,2013-05-25 00:17:00,
2013-05-24 20:22:00,39.7,32.2,30.34,NNW,348,4.0,9.0,74,0.00,,,0.00,meteohub,2013-05-25 00:22:00,
2013-05-24 20:27:00,39.6,32.0,30.34,NNW,348,2.0,9.0,74,0.00,,,0.00,meteohub,2013-05-25 00:27:00,
2013-05-24 20:32:00,39.4,32.2,30.34,NNW,344,1.0,7.0,75,0.00,,,0.00,meteohub,2013-05-25 00:32:00,
2013-05-24 20:37:00,39.0,31.8,30.34,East,82,5.0,6.0,75,0.00,,,0.00,meteohub,2013-05-25 00:37:00,
2013-05-24 20:42:00,38.8,32.0,30.33,NE,37,0.0,6.0,76,0.00,,,0.00,meteohub,2013-05-25 00:42:00,
2013-05-24 20:47:00,38.7,31.8,30.33,NE,37,1.0,6.0,76,0.00,,,0.00,meteohub,2013-05-25 00:47:00,
2013-05-24 20:52:00,38.5,31.8,30.33,NE,37,1.0,6.0,77,0.00,,,0.00,meteohub,2013-05-25 00:52:00,
2013-05-24 20:57:00,38.1,31.8,30.33,NE,37,0.0,4.0,78,0.00,,,0.00,meteohub,2013-05-25 00:57:00,
2013-05-24 21:02:00,37.8,31.8,30.33,NE,37,0.0,3.0,79,0.00,,,0.00,meteohub,2013-05-25 01:02:00,
2013-05-24 21:07:00,37.6,31.6,30.33,NE,37,0.0,3.0,79,0.00,,,0.00,meteohub,2013-05-25 01:07:00,
2013-05-24 21:12:00,37.2,31.6,30.33,NE,37,0.0,3.0,80,0.00,,,0.00,meteohub,2013-05-25 01:12:00,
2013-05-24 21:17:00,37.0,31.8,30.33,NE,37,0.0,2.0,81,0.00,,,0.00,meteohub,2013-05-25 01:17:00,
2013-05-24 21:22:00,36.9,31.6,30.33,NE,37,2.0,2.0,81,0.00,,,0.00,meteohub,2013-05-25 01:22:00,
2013-05-24 21:27:00,36.7,31.6,30.33,NE,37,0.0,2.0,82,0.00,,,0.00,meteohub,2013-05-25 01:27:00,
2013-05-24 21:32:00,36.3,31.3,30.33,NE,37,0.0,2.0,82,0.00,,,0.00,meteohub,2013-05-25 01:32:00,
2013-05-24 21:37:00,36.1,31.5,30.34,NE,37,0.0,3.0,83,0.00,,,0.00,meteohub,2013-05-25 01:37:00,
2013-05-24 21:42:00,36.1,31.5,30.34,NE,37,0.0,3.0,83,0.00,,,0.00,meteohub,2013-05-25 01:42:00,
2013-05-24 21:47:00,36.0,31.3,30.33,NE,37,0.0,3.0,83,0.00,,,0.00,meteohub,2013-05-25 01:47:00,
2013-05-24 21:52:00,35.8,31.1,30.33,NE,37,0.0,3.0,83,0.00,,,0.00,meteohub,2013-05-25 01:52:00,
2013-05-24 21:57:00,35.8,31.5,30.33,NE,37,0.0,2.0,84,0.00,,,0.00,meteohub,2013-05-25 01:57:00,
2013-05-24 22:02:00,35.4,31.1,30.33,NE,37,0.0,1.0,84,0.00,,,0.00,meteohub,2013-05-25 02:02:00,
2013-05-24 22:07:00,35.2,31.1,30.34,NE,37,0.0,1.0,85,0.00,,,0.00,meteohub,2013-05-25 02:07:00,
2013-05-24 22:12:00,35.1,30.9,30.34,NE,37,0.0,2.0,85,0.00,,,0.00,meteohub,2013-05-25 02:12:00,
2013-05-24 22:17:00,34.9,31.1,30.34,NE,37,0.0,2.0,86,0.00,,,0.00,meteohub,2013-05-25 02:17:00,
2013-05-24 22:22:00,34.5,31.1,30.34,NE,37,0.0,2.0,87,0.00,,,0.00,meteohub,2013-05-25 02:22:00,
2013-05-24 22:27:00,34.3,30.6,30.34,NE,37,0.0,0.0,86,0.00,,,0.00,meteohub,2013-05-25 02:27:00,
2013-05-24 22:32:00,34.2,30.7,30.34,NE,37,0.0,0.0,87,0.00,,,0.00,meteohub,2013-05-25 02:32:00,
2013-05-24 22:37:00,34.0,30.7,30.34,NE,37,0.0,0.0,88,0.00,,,0.00,meteohub,2013-05-25 02:37:00,
2013-05-24 22:42:00,33.6,30.4,30.34,NE,37,1.0,0.0,88,0.00,,,0.00,meteohub,2013-05-25 02:42:00,
2013-05-24 22:47:00,33.4,30.6,30.34,NE,37,0.0,1.0,89,0.00,,,0.00,meteohub,2013-05-25 02:47:00,
2013-05-24 22:52:00,33.3,30.6,30.34,NE,37,0.0,1.0,90,0.00,,,0.00,meteohub,2013-05-25 02:52:00,
2013-05-24 22:57:00,33.1,30.4,30.34,NE,37,0.0,1.0,90,0.00,,,0.00,meteohub,2013-05-25 02:57:00,
2013-05-24 23:02:00,32.9,30.6,30.34,NE,37,0.0,1.0,91,0.00,,,0.00,meteohub,2013-05-25 03:02:00,
2013-05-24 23:07:00,32.7,30.4,30.34,NE,37,0.0,1.0,91,0.00,,,0.00,meteohub,2013-05-25 03:07:00,
2013-05-24 23:12:00,32.5,30.2,30.34,NE,37,0.0,1.0,91,0.00,,,0.00,meteohub,2013-05-25 03:12:00,
2013-05-24 23:17:00,32.5,30.2,30.34,NE,37,0.0,1.0,91,0.00,,,0.00,meteohub,2013-05-25 03:17:00,
2013-05-24 23:22:00,32.4,30.0,30.35,NE,37,0.0,1.0,91,0.00,,,0.00,meteohub,2013-05-25 03:22:00,
2013-05-24 23:27:00,32.2,30.2,30.35,NE,37,0.0,0.0,92,0.00,,,0.00,meteohub,2013-05-25 03:27:00,
2013-05-24 23:32:00,32.0,30.0,30.34,NE,37,0.0,0.0,92,0.00,,,0.00,meteohub,2013-05-25 03:32:00,
2013-05-24 23:37:00,32.0,30.0,30.34,NE,37,0.0,0.0,92,0.00,,,0.00,meteohub,2013-05-25 03:37:00,
2013-05-24 23:42:00,31.8,30.0,30.35,NE,37,0.0,0.0,93,0.00,,,0.00,meteohub,2013-05-25 03:42:00,
2013-05-24 23:47:00,31.8,30.0,30.35,NE,37,0.0,0.0,93,0.00,,,0.00,meteohub,2013-05-25 03:47:00,
2013-05-24 23:52:00,31.6,29.8,30.35,NE,37,0.0,0.0,93,0.00,,,0.00,meteohub,2013-05-25 03:52:00,
2013-05-24 23:57:00,31.5,29.7,30.35,NE,37,0.0,0.0,93,0.00,,,0.00,meteohub,2013-05-25 03:57:00,